Time;durP1;ratioP1;P1;durP2;ratioP2;P2;SDS_P1;SDS_P2;PMS_P1;PMS_P2;Temp;Humidity;BMP_temperature;BMP_pressure;BME280_temperature;BME280_humidity;BME280_pressure;Samples;Min_cycle;Max_cycle;Signal;HPM_P1;HPM_P2
2023/03/30 00:00:33;;;;;;;8.93;5.93;;;10.70;99.90;;;;;;5074723;28;20041;-64
2023/03/30 00:03:01;;;;;;;11.75;6.38;;;10.80;99.90;;;;;;5074469;28;20037;-64
2023/03/30 00:05:30;;;;;;;8.07;5.68;;;10.80;99.90;;;;;;5074350;28;20049;-64
2023/03/30 00:07:56;;;;;;;10.18;6.38;;;10.80;99.90;;;;;;5074576;28;20041;-64
2023/03/30 00:10:22;;;;;;;10.02;6.35;;;10.90;99.90;;;;;;5056408;28;20079;-65
2023/03/30 00:12:49;;;;;;;10.32;6.22;;;10.90;99.90;;;;;;5074331;28;20037;-65
2023/03/30 00:15:18;;;;;;;10.75;6.30;;;10.90;99.90;;;;;;5074446;28;20400;-64
2023/03/30 00:17:44;;;;;;;11.10;6.20;;;13.60;99.90;;;;;;5074460;28;20400;-64
2023/03/30 00:20:12;;;;;;;9.32;6.10;;;10.90;99.90;;;;;;5074296;28;20090;-64
2023/03/30 00:22:41;;;;;;;12.48;6.05;;;11.00;99.90;;;;;;5056173;28;20047;-64
2023/03/30 00:25:09;;;;;;;9.98;5.80;;;11.00;99.90;;;;;;5056425;28;20040;-64
2023/03/30 00:27:36;;;;;;;11.68;5.28;;;11.00;99.90;;;;;;5056097;28;20078;-65
2023/03/30 00:30:14;;;;;;;8.25;5.57;;;11.70;99.90;;;;;;5073840;28;20079;-66
2023/03/30 00:32:41;;;;;;;7.95;4.95;;;11.00;99.90;;;;;;5073836;28;20159;-64
2023/03/30 00:35:07;;;;;;;9.18;5.22;;;11.10;99.90;;;;;;5074009;28;20043;-65
2023/03/30 00:37:36;;;;;;;8.05;5.38;;;11.00;99.90;;;;;;5073690;28;20043;-64
2023/03/30 00:40:07;;;;;;;7.50;5.25;;;11.00;99.90;;;;;;5073851;28;20051;-65
2023/03/30 00:42:36;;;;;;;10.30;5.15;;;11.00;99.90;;;;;;5055945;28;20045;-65
2023/03/30 00:45:15;;;;;;;9.18;5.45;;;11.00;99.90;;;;;;5073856;28;20037;-64
2023/03/30 00:47:45;;;;;;;7.45;5.10;;;11.10;99.90;;;;;;5073916;28;20523;-64
2023/03/30 00:50:12;;;;;;;9.00;5.28;;;11.00;99.90;;;;;;5073750;28;20051;-65
2023/03/30 00:52:40;;;;;;;8.18;5.22;;;11.10;99.90;;;;;;5073187;28;20111;-64
2023/03/30 00:55:08;;;;;;;8.02;4.57;;;11.10;99.90;;;;;;5073656;28;20403;-65
2023/03/30 00:57:36;;;;;;;9.60;5.20;;;11.00;99.90;;;;;;5073662;28;20037;-65
2023/03/30 01:00:06;;;;;;;6.63;4.10;;;11.10;99.90;;;;;;5073536;28;20052;-65
2023/03/30 01:02:34;;;;;;;7.00;4.50;;;11.10;99.90;;;;;;5073655;28;20037;-65
2023/03/30 01:05:01;;;;;;;9.05;4.32;;;11.10;99.90;;;;;;5055678;28;20053;-65
2023/03/30 01:07:27;;;;;;;8.70;4.13;;;12.00;99.90;;;;;;5073519;28;20048;-65
2023/03/30 01:09:53;;;;;;;10.15;4.38;;;11.10;99.90;;;;;;5073404;28;20472;-65
2023/03/30 01:12:19;;;;;;;9.50;4.40;;;11.10;99.90;;;;;;5073450;28;20040;-68
2023/03/30 01:14:46;;;;;;;5.82;4.13;;;11.10;99.90;;;;;;5055153;28;20036;-64
2023/03/30 01:17:25;;;;;;;6.07;4.10;;;11.10;99.90;;;;;;5055429;28;20602;-64
2023/03/30 01:20:14;;;;;;;4.88;3.15;;;11.20;99.90;;;;;;5073231;28;20045;-65
2023/03/30 01:23:00;;;;;;;4.80;3.03;;;11.20;99.90;;;;;;5073194;28;20058;-64
2023/03/30 01:26:08;;;;;;;7.90;3.85;;;11.20;99.90;;;;;;5073265;28;20480;-65
2023/03/30 01:28:57;;;;;;;4.32;2.72;;;11.30;99.90;;;;;;5073140;28;20479;-64
2023/03/30 01:31:44;;;;;;;6.95;3.55;;;11.20;99.90;;;;;;5072917;28;20040;-64
2023/03/30 01:34:20;;;;;;;5.78;3.17;;;11.30;99.90;;;;;;5055197;28;20028;-65
2023/03/30 01:37:13;;;;;;;7.70;3.22;;;11.30;99.90;;;;;;5073130;28;20480;-64
2023/03/30 01:40:08;;;;;;;4.45;2.88;;;11.30;99.90;;;;;;5072708;28;20036;-65
2023/03/30 01:42:52;;;;;;;3.17;2.15;;;11.40;99.90;;;;;;5064316;28;20049;-64
2023/03/30 01:45:36;;;;;;;3.65;2.58;;;11.40;99.90;;;;;;5072990;28;20044;-64
2023/03/30 01:48:13;;;;;;;8.25;3.30;;;11.40;99.90;;;;;;5072630;28;20049;-65
2023/03/30 01:50:41;;;;;;;5.40;2.70;;;11.40;99.90;;;;;;5072963;28;20481;-65
2023/03/30 01:53:27;;;;;;;5.18;3.00;;;11.50;99.90;;;;;;5072861;28;20044;-65
2023/03/30 01:56:11;;;;;;;7.10;3.08;;;11.50;99.90;;;;;;5054654;28;20137;-64
2023/03/30 01:58:49;;;;;;;4.93;2.83;;;11.50;99.90;;;;;;5072507;28;20056;-65
2023/03/30 02:01:19;;;;;;;4.03;2.28;;;11.50;99.90;;;;;;5072758;28;20041;-65
2023/03/30 02:03:53;;;;;;;6.57;2.60;;;11.50;99.90;;;;;;5073455;28;20037;-65
2023/03/30 02:06:37;;;;;;;6.57;2.70;;;11.50;99.90;;;;;;5076632;28;20057;-64
2023/03/30 02:09:04;;;;;;;3.65;2.40;;;11.50;99.90;;;;;;5076618;28;20106;-65
2023/03/30 02:11:31;;;;;;;7.07;2.03;;;11.50;99.90;;;;;;5076871;28;20431;-65
2023/03/30 02:13:58;;;;;;;3.85;2.35;;;11.50;99.90;;;;;;5076781;28;20040;-64
2023/03/30 02:16:33;;;;;;;5.68;2.88;;;11.50;99.90;;;;;;5058710;28;20040;-65
2023/03/30 02:18:59;;;;;;;5.72;2.42;;;11.50;99.90;;;;;;5076643;28;20060;-65
2023/03/30 02:21:26;;;;;;;3.58;2.65;;;11.50;99.90;;;;;;5076655;28;20162;-65
2023/03/30 02:23:53;;;;;;;3.42;2.20;;;11.50;99.90;;;;;;5076333;28;20080;-64
2023/03/30 02:26:21;;;;;;;4.90;2.30;;;11.50;99.90;;;;;;5076488;28;20047;-64
2023/03/30 02:28:48;;;;;;;5.45;2.20;;;11.50;99.90;;;;;;5076506;28;20048;-65
2023/03/30 02:31:15;;;;;;;4.38;2.53;;;11.40;99.90;;;;;;5076364;28;20396;-65
2023/03/30 02:34:25;;;;;;;4.38;2.28;;;11.50;99.90;;;;;;5076371;28;20395;-65
2023/03/30 02:37:08;;;;;;;3.63;2.30;;;11.50;99.90;;;;;;5076046;28;20052;-65
2023/03/30 02:39:46;;;;;;;5.95;2.60;;;11.50;99.90;;;;;;5076208;28;20045;-65
2023/03/30 02:42:49;;;;;;;5.28;2.35;;;11.50;99.90;;;;;;5058290;28;20052;-65
2023/03/30 02:45:47;;;;;;;4.88;2.65;;;11.50;99.90;;;;;;5076190;28;20125;-65
2023/03/30 02:48:36;;;;;;;6.75;2.35;;;11.50;99.90;;;;;;5076124;28;20047;-65
2023/03/30 02:51:20;;;;;;;5.15;2.67;;;11.60;99.90;;;;;;5058119;28;20127;-65
2023/03/30 02:54:26;;;;;;;3.35;2.25;;;11.60;99.90;;;;;;5076046;28;20045;-65
2023/03/30 02:57:09;;;;;;;9.40;2.53;;;11.60;99.90;;;;;;4958849;28;20046;-65
2023/03/30 02:59:53;;;;;;;2.80;1.75;;;11.60;99.90;;;;;;5070407;28;20052;-65
2023/03/30 03:02:23;;;;;;;4.32;1.98;;;12.20;99.90;;;;;;5075611;28;20041;-64
2023/03/30 03:04:51;;;;;;;8.05;2.38;;;11.60;99.90;;;;;;5075677;28;20235;-65
2023/03/30 03:07:18;;;;;;;4.88;2.20;;;11.60;99.90;;;;;;5075761;28;20044;-65
2023/03/30 03:09:43;;;;;;;3.95;2.33;;;11.50;99.90;;;;;;5075740;28;20043;-65
2023/03/30 03:12:09;;;;;;;2.92;1.95;;;11.50;99.90;;;;;;5075749;28;20048;-65
2023/03/30 03:14:36;;;;;;;3.05;1.90;;;11.50;99.90;;;;;;5075540;28;20166;-65
2023/03/30 03:17:03;;;;;;;3.65;1.95;;;11.50;99.90;;;;;;5075580;28;20036;-64
2023/03/30 03:19:29;;;;;;;3.47;1.67;;;11.40;99.90;;;;;;5075787;28;20048;-64
2023/03/30 03:21:55;;;;;;;4.20;2.08;;;11.40;99.90;;;;;;5040664;28;20308;-65
2023/03/30 03:24:20;;;;;;;4.10;2.28;;;11.40;99.90;;;;;;5075522;28;20048;-65
2023/03/30 03:26:46;;;;;;;4.80;1.77;;;11.40;99.90;;;;;;5075380;28;20575;-65
2023/03/30 03:29:12;;;;;;;5.30;2.00;;;11.40;99.90;;;;;;5075034;28;20032;-64
2023/03/30 03:31:37;;;;;;;2.30;1.80;;;11.40;99.90;;;;;;5075269;28;20040;-65
2023/03/30 03:34:03;;;;;;;4.88;2.72;;;12.90;99.90;;;;;;5057313;28;20048;-65
2023/03/30 03:36:29;;;;;;;2.65;1.90;;;11.40;99.90;;;;;;5057073;28;20040;-64
2023/03/30 03:38:55;;;;;;;3.75;2.10;;;11.40;99.90;;;;;;5074844;28;20139;-65
2023/03/30 03:41:21;;;;;;;4.75;2.00;;;11.30;99.90;;;;;;5075241;28;20460;-64
2023/03/30 03:43:47;;;;;;;3.72;2.03;;;11.30;99.90;;;;;;5075082;28;20029;-65
2023/03/30 03:46:13;;;;;;;4.15;1.80;;;12.60;99.90;;;;;;5075039;28;20098;-65
2023/03/30 03:48:39;;;;;;;2.67;1.48;;;11.30;99.90;;;;;;5074794;28;20039;-64
2023/03/30 03:51:05;;;;;;;5.68;1.90;;;11.40;99.90;;;;;;5074976;28;20051;-65
2023/03/30 03:53:31;;;;;;;3.92;1.83;;;11.40;99.90;;;;;;5074967;28;20095;-65
2023/03/30 03:55:57;;;;;;;2.85;1.83;;;11.40;99.90;;;;;;5074840;28;20068;-64
2023/03/30 03:58:24;;;;;;;3.22;1.80;;;11.40;99.90;;;;;;5074892;28;20063;-64
2023/03/30 04:00:50;;;;;;;5.55;2.40;;;11.40;99.90;;;;;;5074760;28;20035;-64
2023/03/30 04:03:16;;;;;;;4.07;1.85;;;11.80;99.90;;;;;;5039981;28;20046;-65
2023/03/30 04:05:42;;;;;;;2.38;1.60;;;11.50;99.90;;;;;;5074195;28;20526;-65
2023/03/30 04:08:11;;;;;;;2.78;1.60;;;12.10;99.90;;;;;;5074641;28;20041;-64
2023/03/30 04:10:38;;;;;;;5.03;1.52;;;11.60;99.90;;;;;;5074554;28;20123;-65
2023/03/30 04:13:04;;;;;;;3.45;1.90;;;11.60;99.90;;;;;;5074524;28;20041;-65
2023/03/30 04:15:30;;;;;;;3.08;1.70;;;11.70;99.90;;;;;;5074502;28;20051;-65
2023/03/30 04:17:58;;;;;;;3.85;1.60;;;11.70;99.90;;;;;;5074438;28;20036;-65
2023/03/30 04:20:25;;;;;;;2.97;1.30;;;11.70;99.90;;;;;;5074264;28;20094;-65
2023/03/30 04:22:52;;;;;;;3.45;1.60;;;11.70;99.90;;;;;;5074355;28;20049;-65
2023/03/30 04:25:20;;;;;;;4.18;1.35;;;11.80;99.90;;;;;;5074237;28;20048;-64
2023/03/30 04:27:50;;;;;;;4.40;1.73;;;11.80;99.90;;;;;;5073317;28;20071;-64
2023/03/30 04:30:16;;;;;;;5.13;2.25;;;11.90;99.90;;;;;;5074168;28;20114;-65
2023/03/30 04:32:43;;;;;;;2.33;1.50;;;11.80;99.90;;;;;;5074135;28;20036;-65
2023/03/30 04:35:09;;;;;;;4.43;1.63;;;11.90;99.90;;;;;;5073802;28;20068;-65
2023/03/30 04:37:37;;;;;;;5.03;1.67;;;11.90;99.90;;;;;;5074004;28;20036;-65
2023/03/30 04:40:06;;;;;;;3.95;1.30;;;11.90;99.90;;;;;;5055735;28;20040;-65
2023/03/30 04:42:36;;;;;;;3.95;1.65;;;11.90;99.90;;;;;;5073966;28;20090;-65
2023/03/30 04:45:07;;;;;;;4.72;1.63;;;11.90;99.90;;;;;;5073901;28;20072;-64
2023/03/30 04:47:33;;;;;;;4.47;1.75;;;11.90;99.90;;;;;;5073882;28;20036;-65
2023/03/30 04:50:00;;;;;;;5.10;1.33;;;12.00;99.90;;;;;;5073505;28;20412;-65
2023/03/30 04:52:26;;;;;;;3.95;1.35;;;12.00;99.90;;;;;;5073792;28;20079;-65
2023/03/30 04:54:52;;;;;;;3.53;1.48;;;12.10;99.90;;;;;;5073714;28;20036;-64
2023/03/30 04:57:18;;;;;;;2.90;1.27;;;12.20;99.90;;;;;;5073666;28;20585;-64
2023/03/30 04:59:44;;;;;;;4.80;1.35;;;12.20;99.90;;;;;;5073523;28;20043;-65
2023/03/30 05:02:11;;;;;;;3.20;2.00;;;12.20;99.90;;;;;;5073282;28;20033;-64
2023/03/30 05:04:37;;;;;;;5.38;1.73;;;12.30;99.90;;;;;;5073378;28;20044;-64
2023/03/30 05:07:03;;;;;;;1.23;1.00;;;12.30;99.90;;;;;;5055830;28;20051;-64
2023/03/30 05:09:29;;;;;;;4.72;1.35;;;12.80;99.90;;;;;;5073548;28;20048;-64
2023/03/30 05:11:55;;;;;;;3.83;1.48;;;13.20;99.90;;;;;;5072932;28;20037;-64
2023/03/30 05:14:21;;;;;;;3.72;1.50;;;12.20;99.90;;;;;;5073419;28;20471;-65
2023/03/30 05:16:46;;;;;;;3.33;1.33;;;12.20;99.90;;;;;;5073333;28;20040;-64
2023/03/30 05:19:12;;;;;;;3.90;1.42;;;12.10;99.90;;;;;;5073162;28;20535;-64
2023/03/30 05:21:37;;;;;;;7.53;1.80;;;12.00;99.90;;;;;;5072942;28;20040;-64
2023/03/30 05:24:03;;;;;;;3.25;1.80;;;12.80;99.90;;;;;;5072794;28;20079;-64
2023/03/30 05:26:29;;;;;;;2.42;1.70;;;11.80;99.90;;;;;;5072919;28;20094;-64
2023/03/30 05:28:55;;;;;;;5.22;2.40;;;11.80;99.90;;;;;;5073111;28;20068;-67
2023/03/30 05:31:21;;;;;;;2.70;1.30;;;11.80;99.90;;;;;;5073120;28;20037;-65
2023/03/30 05:33:47;;;;;;;1.77;1.50;;;11.80;99.90;;;;;;5073110;28;20032;-68
2023/03/30 05:36:13;;;;;;;2.92;1.40;;;11.80;99.90;;;;;;5073043;28;20059;-65
2023/03/30 05:38:39;;;;;;;5.47;1.77;;;11.80;99.90;;;;;;5072236;28;20115;-65
2023/03/30 05:41:05;;;;;;;3.75;1.45;;;11.80;99.90;;;;;;5073008;28;20036;-64
2023/03/30 05:43:32;;;;;;;3.10;1.65;;;11.80;99.90;;;;;;5072720;28;20127;-64
2023/03/30 05:45:58;;;;;;;4.45;1.65;;;11.70;99.90;;;;;;5073017;28;20040;-64
2023/03/30 05:48:23;;;;;;;6.03;1.90;;;12.50;99.90;;;;;;5072663;28;20040;-63
2023/03/30 05:50:49;;;;;;;4.60;1.55;;;11.70;99.90;;;;;;5072760;28;20115;-64
2023/03/30 05:53:15;;;;;;;3.25;1.73;;;11.70;99.90;;;;;;5072903;28;20033;-65
2023/03/30 05:55:48;;;;;;;6.15;1.75;;;11.70;99.90;;;;;;5072895;28;20048;-65
2023/03/30 05:58:15;;;;;;;2.20;1.52;;;11.70;99.90;;;;;;5072855;28;20048;-66
2023/03/30 06:00:42;;;;;;;6.32;1.92;;;11.70;99.90;;;;;;5054793;28;20044;-64
2023/03/30 06:03:09;;;;;;;4.38;1.40;;;11.70;99.90;;;;;;5072764;28;20032;-66
2023/03/30 06:05:40;;;;;;;4.00;1.75;;;11.70;99.90;;;;;;5054435;28;20098;-67
2023/03/30 06:08:06;;;;;;;4.65;2.25;;;11.70;99.90;;;;;;5072832;28;20063;-65
2023/03/30 06:10:33;;;;;;;4.30;1.70;;;11.70;99.90;;;;;;5072472;28;20044;-64
2023/03/30 06:12:59;;;;;;;3.83;1.92;;;11.80;99.90;;;;;;5072685;28;20033;-64
2023/03/30 06:15:24;;;;;;;3.60;1.67;;;11.80;99.90;;;;;;5072631;28;20033;-64
2023/03/30 06:17:51;;;;;;;2.17;1.70;;;11.90;99.90;;;;;;5072627;28;20040;-63
2023/03/30 06:20:20;;;;;;;3.60;1.60;;;11.90;99.90;;;;;;5072397;28;20492;-67
2023/03/30 06:22:46;;;;;;;4.32;1.42;;;12.00;99.90;;;;;;5072630;28;20037;-65
2023/03/30 06:25:12;;;;;;;8.13;1.83;;;12.10;99.90;;;;;;5072578;28;20045;-64
2023/03/30 06:27:38;;;;;;;3.95;1.60;;;12.10;99.90;;;;;;5072541;28;20029;-65
2023/03/30 06:30:05;;;;;;;2.33;1.15;;;12.10;99.90;;;;;;5072590;28;20372;-64
2023/03/30 06:32:30;;;;;;;1.80;1.05;;;12.10;99.90;;;;;;5072656;28;20079;-64
2023/03/30 06:34:56;;;;;;;2.67;1.42;;;12.10;99.90;;;;;;5072186;28;20084;-63
2023/03/30 06:37:22;;;;;;;4.38;2.28;;;12.10;99.90;;;;;;5054041;28;20040;-64
2023/03/30 06:39:47;;;;;;;2.25;1.30;;;12.00;99.90;;;;;;5072150;28;20504;-64
2023/03/30 06:42:13;;;;;;;3.30;1.40;;;11.90;99.90;;;;;;5053927;28;20041;-63
2023/03/30 06:44:39;;;;;;;2.28;1.42;;;11.80;99.90;;;;;;5072253;28;20468;-64
2023/03/30 06:47:05;;;;;;;4.18;1.58;;;12.60;99.90;;;;;;5071870;28;20044;-68
2023/03/30 06:49:30;;;;;;;2.83;1.65;;;11.80;99.90;;;;;;5072681;28;20040;-65
2023/03/30 06:51:56;;;;;;;4.93;1.73;;;11.70;99.90;;;;;;5057869;28;20098;-65
2023/03/30 06:54:23;;;;;;;3.20;1.48;;;11.80;99.90;;;;;;5075911;28;20518;-65
2023/03/30 06:56:49;;;;;;;6.75;1.77;;;12.00;99.90;;;;;;5075872;28;20036;-65
2023/03/30 06:59:15;;;;;;;3.65;1.70;;;12.10;99.90;;;;;;5075591;28;20049;-65
2023/03/30 07:01:41;;;;;;;3.30;1.50;;;12.10;99.90;;;;;;5057554;28;20411;-65
2023/03/30 07:04:08;;;;;;;3.10;1.35;;;12.10;99.90;;;;;;5075748;28;20036;-65
2023/03/30 07:06:34;;;;;;;3.03;1.92;;;12.10;99.90;;;;;;5075193;28;20091;-65
2023/03/30 07:09:00;;;;;;;2.92;1.85;;;12.10;99.90;;;;;;5075562;28;20068;-65
2023/03/30 07:11:26;;;;;;;4.75;1.67;;;13.00;99.90;;;;;;5075619;28;20130;-66
2023/03/30 07:13:55;;;;;;;6.63;1.83;;;12.50;99.90;;;;;;5075507;28;20488;-66
2023/03/30 07:16:21;;;;;;;7.35;2.38;;;12.20;99.90;;;;;;5075521;28;20029;-65
2023/03/30 07:18:46;;;;;;;2.20;1.38;;;12.30;99.90;;;;;;5075435;28;20043;-65
2023/03/30 07:21:12;;;;;;;2.25;1.73;;;12.20;99.90;;;;;;5057172;28;20045;-65
2023/03/30 07:23:38;;;;;;;4.72;1.88;;;12.30;99.90;;;;;;5057460;28;20040;-66
2023/03/30 07:26:04;;;;;;;7.45;2.15;;;12.30;99.90;;;;;;5075017;28;20033;-66
2023/03/30 07:28:29;;;;;;;2.17;1.45;;;12.30;99.90;;;;;;5075288;28;20032;-65
2023/03/30 07:31:04;;;;;;;9.77;1.58;;;13.30;99.90;;;;;;5075136;28;20124;-66
2023/03/30 07:33:30;;;;;;;5.82;1.80;;;12.30;99.90;;;;;;5075169;28;20098;-65
2023/03/30 07:35:56;;;;;;;2.42;1.42;;;12.40;99.90;;;;;;5074700;28;20119;-65
2023/03/30 07:38:21;;;;;;;1.58;1.38;;;13.00;99.90;;;;;;5057050;28;20044;-65
2023/03/30 07:40:47;;;;;;;2.80;1.38;;;12.50;99.90;;;;;;5074467;28;20094;-65
2023/03/30 07:43:13;;;;;;;7.25;1.73;;;12.40;99.90;;;;;;5074737;28;20035;-65
2023/03/30 07:45:38;;;;;;;5.85;1.67;;;12.50;99.90;;;;;;5074515;28;20040;-65
2023/03/30 07:48:04;;;;;;;8.38;1.40;;;12.50;99.90;;;;;;5056550;28;20123;-66
2023/03/30 07:50:29;;;;;;;6.25;1.40;;;12.50;99.90;;;;;;5074695;28;20047;-65
2023/03/30 07:52:55;;;;;;;5.05;1.20;;;12.50;99.90;;;;;;5074631;28;20083;-66
2023/03/30 07:55:21;;;;;;;8.73;1.73;;;12.50;99.90;;;;;;5074680;28;20381;-66
2023/03/30 07:57:46;;;;;;;11.00;1.73;;;12.60;99.90;;;;;;5074695;28;20037;-66
2023/03/30 08:00:13;;;;;;;9.45;1.45;;;12.60;99.90;;;;;;5074468;28;20041;-66
2023/03/30 08:02:39;;;;;;;4.15;1.27;;;12.60;99.90;;;;;;5055680;28;20045;-65
2023/03/30 08:05:05;;;;;;;8.82;1.70;;;12.60;99.90;;;;;;5074414;28;20055;-65
2023/03/30 08:07:33;;;;;;;3.42;1.55;;;12.60;99.90;;;;;;5074649;28;20511;-65
2023/03/30 08:09:59;;;;;;;3.45;1.23;;;12.60;99.90;;;;;;5074219;28;20041;-66
2023/03/30 08:12:24;;;;;;;7.30;1.67;;;12.50;99.90;;;;;;5074540;28;20040;-66
2023/03/30 08:14:50;;;;;;;5.90;1.73;;;12.50;99.90;;;;;;5074468;28;20036;-65
2023/03/30 08:17:18;;;;;;;6.15;2.00;;;12.50;99.90;;;;;;5074071;28;20037;-65
2023/03/30 08:19:43;;;;;;;4.88;1.67;;;12.50;99.90;;;;;;5074333;28;20036;-66
2023/03/30 08:22:09;;;;;;;7.35;1.77;;;12.50;99.90;;;;;;5056577;28;20040;-65
2023/03/30 08:24:35;;;;;;;4.53;2.05;;;12.50;99.90;;;;;;5074297;28;20115;-67
2023/03/30 08:27:00;;;;;;;5.43;1.75;;;12.50;99.90;;;;;;5074199;28;20289;-66
2023/03/30 08:29:26;;;;;;;4.15;1.38;;;13.50;99.90;;;;;;5074216;28;20520;-66
2023/03/30 08:31:52;;;;;;;6.55;1.80;;;12.40;99.90;;;;;;5074068;28;20041;-66
2023/03/30 08:34:18;;;;;;;8.60;1.50;;;12.30;99.90;;;;;;5074052;28;20055;-66
2023/03/30 08:36:43;;;;;;;10.55;2.10;;;12.30;99.90;;;;;;5056327;28;20037;-66
2023/03/30 08:39:09;;;;;;;4.78;2.03;;;12.30;99.90;;;;;;5074023;28;20476;-67
2023/03/30 08:41:50;;;;;;;3.70;1.27;;;12.30;99.90;;;;;;5074010;28;20041;-66
2023/03/30 08:44:36;;;;;;;8.25;1.65;;;12.30;99.90;;;;;;5073922;28;20036;-66
2023/03/30 08:47:08;;;;;;;6.35;1.48;;;12.20;99.90;;;;;;5073916;28;20451;-66
2023/03/30 08:49:46;;;;;;;5.15;1.15;;;12.30;99.90;;;;;;5073854;28;20056;-66
2023/03/30 08:52:21;;;;;;;4.47;1.20;;;12.40;99.90;;;;;;5073851;28;20045;-66
2023/03/30 08:54:48;;;;;;;3.22;1.13;;;12.40;99.90;;;;;;5073787;28;20484;-66
2023/03/30 08:57:21;;;;;;;5.22;1.55;;;12.50;99.90;;;;;;5073688;28;20429;-66
2023/03/30 09:00:05;;;;;;;6.05;2.05;;;12.40;99.90;;;;;;5073673;28;20484;-65
2023/03/30 09:02:36;;;;;;;8.52;1.60;;;12.40;99.90;;;;;;5073679;28;20040;-66
2023/03/30 09:05:07;;;;;;;5.75;1.38;;;12.60;99.90;;;;;;5073321;28;20428;-67
2023/03/30 09:07:38;;;;;;;5.72;1.42;;;12.60;99.90;;;;;;5055606;28;20185;-67
2023/03/30 09:10:09;;;;;;;;;;;12.70;99.90;;;;;;5073885;28;20040;-67
2023/03/30 09:12:40;;;;;;;6.85;1.50;;;12.70;99.90;;;;;;5073345;28;19917;-66
2023/03/30 09:15:24;;;;;;;;;;;12.70;99.90;;;;;;5073852;28;20040;-66
2023/03/30 09:17:55;;;;;;;4.03;1.60;;;12.80;99.90;;;;;;5073081;28;19979;-66
2023/03/30 09:20:30;;;;;;;6.65;2.15;;;13.20;99.90;;;;;;5038475;28;20052;-66
2023/03/30 09:22:58;;;;;;;9.15;1.52;;;12.90;99.90;;;;;;5073324;28;20039;-66
2023/03/30 09:25:43;;;;;;;4.72;1.20;;;12.90;99.90;;;;;;5073318;28;20047;-66
2023/03/30 09:28:14;;;;;;;6.85;1.42;;;13.00;99.90;;;;;;5073264;28;20036;-65
2023/03/30 09:30:47;;;;;;;5.82;1.42;;;13.00;99.90;;;;;;5072925;28;20083;-66
2023/03/30 09:33:26;;;;;;;7.38;1.50;;;13.10;99.90;;;;;;5072806;28;20412;-66
2023/03/30 09:36:07;;;;;;;5.07;1.20;;;13.10;99.90;;;;;;5073193;28;20044;-66
2023/03/30 09:38:36;;;;;;;8.15;1.50;;;13.20;99.90;;;;;;5055075;28;20040;-66
2023/03/30 09:41:30;;;;;;;8.75;1.45;;;13.40;99.90;;;;;;5054802;28;20040;-67
2023/03/30 09:43:58;;;;;;;3.95;1.20;;;13.40;99.90;;;;;;5073061;28;20477;-66
2023/03/30 09:46:24;;;;;;;11.02;1.85;;;13.40;99.90;;;;;;5054806;28;20047;-66
2023/03/30 09:48:50;;;;;;;3.80;1.35;;;13.40;99.90;;;;;;5073035;28;20036;-66
2023/03/30 09:51:27;;;;;;;5.63;1.50;;;13.60;99.90;;;;;;5073051;28;20036;-67
2023/03/30 09:54:02;;;;;;;6.10;1.52;;;13.30;99.90;;;;;;5072950;28;20408;-66
2023/03/30 09:56:37;;;;;;;5.57;1.98;;;13.30;99.90;;;;;;5072678;28;20373;-66
2023/03/30 09:59:27;;;;;;;4.82;1.42;;;14.70;99.90;;;;;;5072875;28;20452;-66
2023/03/30 10:02:08;;;;;;;3.72;0.93;;;13.20;99.90;;;;;;5072885;28;20139;-66
2023/03/30 10:04:56;;;;;;;8.98;1.17;;;13.10;99.90;;;;;;5072674;28;20097;-66
2023/03/30 10:07:32;;;;;;;6.07;1.55;;;14.10;99.90;;;;;;5073269;28;20040;-66
2023/03/30 10:10:00;;;;;;;4.70;1.25;;;13.10;56.70;;;;;;5072971;28;20424;-65
2023/03/30 10:12:28;;;;;;;3.80;1.38;;;13.00;39.70;;;;;;5054755;28;20099;-67
2023/03/30 10:14:59;;;;;;;10.05;1.67;;;12.90;18.50;;;;;;5072435;28;20066;-65
2023/03/30 10:17:26;;;;;;;6.75;0.82;;;12.90;1.30;;;;;;5072798;28;20082;-65
2023/03/30 10:20:12;;;;;;;3.70;1.48;;;12.90;13.40;;;;;;5054995;28;20055;-65
2023/03/30 10:22:50;;;;;;;5.30;1.05;;;13.00;1.00;;;;;;5072526;28;20051;-65
2023/03/30 10:25:26;;;;;;;6.70;0.88;;;13.10;1.00;;;;;;5074432;28;20568;-65
2023/03/30 10:27:55;;;;;;;2.95;1.00;;;13.20;1.00;;;;;;5076624;28;20037;-64
2023/03/30 10:30:24;;;;;;;2.67;1.00;;;13.20;1.00;;;;;;5076630;28;20120;-65
2023/03/30 10:32:53;;;;;;;3.17;1.10;;;13.20;1.00;;;;;;5076607;28;20119;-65
2023/03/30 10:35:23;;;;;;;6.20;0.88;;;13.30;1.00;;;;;;5058707;28;20124;-65
2023/03/30 10:37:52;;;;;;;2.10;0.90;;;14.30;1.00;;;;;;5058620;28;20547;-66
2023/03/30 10:40:22;;;;;;;3.85;0.70;;;13.40;99.90;;;;;;5076213;28;20045;-65
2023/03/30 10:42:54;;;;;;;3.10;1.02;;;13.40;1.00;;;;;;5076447;28;20043;-65
2023/03/30 10:45:26;;;;;;;3.88;1.02;;;13.40;99.90;;;;;;5076322;28;20037;-65
2023/03/30 10:48:25;;;;;;;7.65;0.85;;;13.40;99.90;;;;;;5076301;28;20051;-65
2023/03/30 10:50:57;;;;;;;3.38;1.77;;;13.40;99.90;;;;;;5054528;28;20084;-65
2023/03/30 10:53:31;;;;;;;7.72;1.48;;;13.50;99.90;;;;;;5076144;28;20507;-65
2023/03/30 10:56:09;;;;;;;2.65;0.82;;;13.60;99.90;;;;;;5075744;28;20075;-65
2023/03/30 10:58:57;;;;;;;4.03;1.20;;;13.60;99.90;;;;;;5076033;28;20048;-65
2023/03/30 11:02:20;;;;;;;9.93;1.00;;;13.50;99.90;;;;;;5075755;28;20083;-65
2023/03/30 11:04:57;;;;;;;7.00;1.20;;;13.50;99.90;;;;;;4974643;28;20400;-66
2023/03/30 11:07:28;;;;;;;5.07;0.85;;;14.50;99.90;;;;;;4974740;28;20046;-65
2023/03/30 11:09:59;;;;;;;4.28;1.20;;;13.50;99.90;;;;;;5028760;28;20056;-66
2023/03/30 11:12:29;;;;;;;;;;;14.50;99.90;;;;;;5057992;28;20124;-66
2023/03/30 11:15:01;;;;;;;6.55;0.88;;;13.50;99.90;;;;;;5057822;28;20353;-66
2023/03/30 11:17:36;;;;;;;2.20;0.93;;;13.70;99.90;;;;;;5075699;28;20123;-66
2023/03/30 11:20:26;;;;;;;3.85;0.95;;;13.80;99.90;;;;;;5075581;28;20037;-66
2023/03/30 11:23:05;;;;;;;6.60;1.13;;;13.90;99.90;;;;;;5075681;28;20470;-66
2023/03/30 11:25:44;;;;;;;2.80;1.38;;;14.00;99.90;;;;;;5075612;28;20080;-65
2023/03/30 11:28:31;;;;;;;11.48;1.77;;;14.00;99.90;;;;;;5057690;28;20036;-65
2023/03/30 11:31:08;;;;;;;3.97;1.02;;;14.20;83.80;;;;;;5075519;28;20469;-65
2023/03/30 11:33:43;;;;;;;7.63;1.20;;;14.20;99.90;;;;;;5075632;28;20048;-65
2023/03/30 11:36:20;;;;;;;3.28;1.40;;;14.40;99.90;;;;;;5075337;28;20049;-65
2023/03/30 11:39:02;;;;;;;3.45;0.85;;;14.50;99.90;;;;;;5075123;28;20534;-65
2023/03/30 11:41:56;;;;;;;4.38;1.20;;;14.60;99.90;;;;;;5075346;28;20040;-65
2023/03/30 11:44:22;;;;;;;5.90;1.50;;;14.80;99.90;;;;;;5074896;28;20040;-65
2023/03/30 11:47:19;;;;;;;5.03;1.42;;;15.60;39.40;;;;;;5075185;28;20044;-65
2023/03/30 11:50:06;;;;;;;7.82;1.10;;;14.80;33.40;;;;;;5056259;28;20049;-65
2023/03/30 11:53:01;;;;;;;3.63;1.25;;;14.90;24.80;;;;;;5075047;28;20040;-65
2023/03/30 11:56:02;;;;;;;4.47;1.25;;;15.10;1.00;;;;;;5065962;28;20190;-65
2023/03/30 11:58:35;;;;;;;1.70;0.73;;;15.60;99.90;;;;;;5022873;28;20190;-65
2023/03/30 12:01:09;;;;;;;10.35;1.80;;;15.10;1.00;;;;;;5074482;28;20131;-65
2023/03/30 12:03:48;;;;;;;3.72;1.13;;;15.10;99.90;;;;;;5074844;28;20078;-65
2023/03/30 12:06:54;;;;;;;3.03;0.80;;;15.30;1.00;;;;;;5056598;28;20056;-65
2023/03/30 12:09:24;;;;;;;2.72;0.77;;;15.80;99.90;;;;;;5069493;28;20053;-65
2023/03/30 12:11:54;;;;;;;6.20;1.33;;;15.80;99.90;;;;;;5074723;28;20090;-66
2023/03/30 12:14:43;;;;;;;6.15;1.40;;;15.70;99.90;;;;;;5056535;28;20079;-65
2023/03/30 12:17:27;;;;;;;3.33;1.10;;;15.60;1.00;;;;;;5074226;28;20051;-65
2023/03/30 12:20:06;;;;;;;5.13;1.02;;;15.30;1.00;;;;;;5074345;28;20036;-66
2023/03/30 12:23:01;;;;;;;10.55;1.55;;;15.40;1.00;;;;;;5074399;28;20423;-65
2023/03/30 12:25:39;;;;;;;2.50;1.40;;;15.40;1.00;;;;;;5073618;28;20088;-65
2023/03/30 12:28:12;;;;;;;3.97;1.13;;;15.20;1.00;;;;;;5074197;28;20040;-65
2023/03/30 12:30:58;;;;;;;6.82;1.45;;;15.20;31.20;;;;;;5073971;28;20127;-65
2023/03/30 12:33:42;;;;;;;6.28;1.50;;;15.10;99.90;;;;;;5056198;28;20044;-65
2023/03/30 12:36:27;;;;;;;3.20;1.50;;;15.50;99.90;;;;;;5074115;28;20128;-65
2023/03/30 12:38:56;;;;;;;4.53;1.52;;;15.80;1.00;;;;;;5074079;28;20036;-65
2023/03/30 12:41:25;;;;;;;7.28;0.95;;;16.30;8.60;;;;;;5073990;28;20037;-65
2023/03/30 12:44:19;;;;;;;4.00;1.40;;;16.10;99.90;;;;;;5073898;28;20051;-65
2023/03/30 12:46:59;;;;;;;2.70;1.27;;;16.30;99.90;;;;;;5073603;28;20119;-67
2023/03/30 12:49:44;;;;;;;3.73;0.87;;;16.50;89.60;;;;;;5073714;28;20572;-65
2023/03/30 12:52:38;;;;;;;9.35;2.03;;;16.60;99.90;;;;;;5073547;28;20056;-66
2023/03/30 12:55:28;;;;;;;3.78;1.02;;;16.50;11.50;;;;;;5073521;28;20043;-65
2023/03/30 12:58:29;;;;;;;4.00;0.90;;;16.20;1.00;;;;;;5073698;28;20036;-66
2023/03/30 13:01:10;;;;;;;4.88;1.23;;;16.50;1.00;;;;;;5073629;28;20141;-66
2023/03/30 13:03:40;;;;;;;5.10;1.17;;;16.60;99.90;;;;;;5073700;28;20481;-65
2023/03/30 13:06:22;;;;;;;5.75;0.95;;;16.30;99.90;;;;;;5073159;28;20393;-65
2023/03/30 13:08:53;;;;;;;7.45;1.00;;;16.20;99.90;;;;;;5073568;28;20071;-65
2023/03/30 13:11:20;;;;;;;;;;;16.20;99.90;;;;;;5073981;28;20419;-65
2023/03/30 13:14:13;;;;;;;5.63;1.83;;;16.00;1.00;;;;;;5073177;28;19923;-65